Weather at General Rafael Buelna International Airport

Public forecast

Using degrees Celsius for public forecast. Weather courtesy of forecast.io.

Current aviation weather report (METAR) for General Rafael Buelna International Airport

Retrieved 2020/10/28 01:45 UTC (39 minutes ago):

MMMZ 280145Z 34003KT 10SM SKC 27/21 A2980 RMK ISOL CI

Aviation forecast (TAF) for General Rafael Buelna International Airport

Retrieved 2020-10-28 00:55 UTC (1 hour ago):

TAF MMMZ 272348Z 2800/2906 31010KT P6SM SKC TX33/2820Z TN23/2812Z BECMG 2805/2806 00000KT FM281600 32010KT 6PSM SKC BECMG 2900/2901